sensor_id;sensor_type;location;lat;lon;timestamp;temperature;humidity
74484;SHT31;62942;52.462;10.846;2023-05-07T00:00:37;9;87.7
74484;SHT31;62942;52.462;10.846;2023-05-07T00:01:36;9;87.7
74484;SHT31;62942;52.462;10.846;2023-05-07T00:02:47;8.9;87.7
74484;SHT31;62942;52.462;10.846;2023-05-07T00:03:56;9;87.8
74484;SHT31;62942;52.462;10.846;2023-05-07T00:05:07;9;87.8
74484;SHT31;62942;52.462;10.846;2023-05-07T00:06:06;9;87.8
74484;SHT31;62942;52.462;10.846;2023-05-07T00:07:06;9;87.8
74484;SHT31;62942;52.462;10.846;2023-05-07T00:08:06;9;87.9
74484;SHT31;62942;52.462;10.846;2023-05-07T00:09:07;9;87.9
74484;SHT31;62942;52.462;10.846;2023-05-07T00:10:07;9;87.9
74484;SHT31;62942;52.462;10.846;2023-05-07T00:11:16;9;87.9
74484;SHT31;62942;52.462;10.846;2023-05-07T00:12:16;9;87.9
74484;SHT31;62942;52.462;10.846;2023-05-07T00:13:16;9;87.9
74484;SHT31;62942;52.462;10.846;2023-05-07T00:14:16;9;87.9
74484;SHT31;62942;52.462;10.846;2023-05-07T00:15:27;9;88
74484;SHT31;62942;52.462;10.846;2023-05-07T00:16:27;9;88
74484;SHT31;62942;52.462;10.846;2023-05-07T00:17:27;9;88
74484;SHT31;62942;52.462;10.846;2023-05-07T00:18:36;9;88
74484;SHT31;62942;52.462;10.846;2023-05-07T00:19:37;9;88
74484;SHT31;62942;52.462;10.846;2023-05-07T00:21:56;9;88
74484;SHT31;62942;52.462;10.846;2023-05-07T00:22:56;9;88
74484;SHT31;62942;52.462;10.846;2023-05-07T00:23:56;9;88
74484;SHT31;62942;52.462;10.846;2023-05-07T00:24:56;9;88
74484;SHT31;62942;52.462;10.846;2023-05-07T00:26:06;8.9;88
74484;SHT31;62942;52.462;10.846;2023-05-07T00:27:16;8.9;88.1
74484;SHT31;62942;52.462;10.846;2023-05-07T00:28:26;8.9;88.1
74484;SHT31;62942;52.462;10.846;2023-05-07T00:29:36;8.9;88.1
74484;SHT31;62942;52.462;10.846;2023-05-07T00:30:46;8.9;88
74484;SHT31;62942;52.462;10.846;2023-05-07T00:31:56;8.9;88.1
74484;SHT31;62942;52.462;10.846;2023-05-07T00:32:56;8.9;88.1
74484;SHT31;62942;52.462;10.846;2023-05-07T00:34:06;8.9;88.1
74484;SHT31;62942;52.462;10.846;2023-05-07T00:35:07;8.9;88.2
74484;SHT31;62942;52.462;10.846;2023-05-07T00:36:07;8.9;88.1
74484;SHT31;62942;52.462;10.846;2023-05-07T00:37:16;8.9;88.3
74484;SHT31;62942;52.462;10.846;2023-05-07T00:38:27;8.9;88.3
74484;SHT31;62942;52.462;10.846;2023-05-07T00:39:26;8.9;88.3
74484;SHT31;62942;52.462;10.846;2023-05-07T00:40:37;8.9;88.4
74484;SHT31;62942;52.462;10.846;2023-05-07T00:41:36;8.9;88.4
74484;SHT31;62942;52.462;10.846;2023-05-07T00:42:46;8.9;88.5
74484;SHT31;62942;52.462;10.846;2023-05-07T00:43:56;8.9;88.5
74484;SHT31;62942;52.462;10.846;2023-05-07T00:44:56;8.9;88.6
74484;SHT31;62942;52.462;10.846;2023-05-07T00:45:56;8.8;88.6
74484;SHT31;62942;52.462;10.846;2023-05-07T00:47:06;8.9;88.6
74484;SHT31;62942;52.462;10.846;2023-05-07T00:48:16;8.8;88.7
74484;SHT31;62942;52.462;10.846;2023-05-07T00:49:16;8.8;88.7
74484;SHT31;62942;52.462;10.846;2023-05-07T00:50:27;8.8;88.7
74484;SHT31;62942;52.462;10.846;2023-05-07T00:51:36;8.8;88.7
74484;SHT31;62942;52.462;10.846;2023-05-07T00:52:46;8.8;88.7
74484;SHT31;62942;52.462;10.846;2023-05-07T00:53:46;8.8;88.7
74484;SHT31;62942;52.462;10.846;2023-05-07T00:54:47;8.8;88.8
74484;SHT31;62942;52.462;10.846;2023-05-07T00:55:56;8.8;88.8
74484;SHT31;62942;52.462;10.846;2023-05-07T00:57:07;8.8;88.7
74484;SHT31;62942;52.462;10.846;2023-05-07T00:58:16;8.8;88.7
74484;SHT31;62942;52.462;10.846;2023-05-07T00:59:16;8.8;88.6
74484;SHT31;62942;52.462;10.846;2023-05-07T01:00:17;8.8;88.7
74484;SHT31;62942;52.462;10.846;2023-05-07T01:01:26;8.8;88.5
74484;SHT31;62942;52.462;10.846;2023-05-07T01:02:26;8.8;88.6
74484;SHT31;62942;52.462;10.846;2023-05-07T01:03:36;8.8;88.6
74484;SHT31;62942;52.462;10.846;2023-05-07T01:04:46;8.8;88.5
74484;SHT31;62942;52.462;10.846;2023-05-07T01:05:46;8.8;88.5
74484;SHT31;62942;52.462;10.846;2023-05-07T01:06:56;8.8;88.5
74484;SHT31;62942;52.462;10.846;2023-05-07T01:08:06;8.8;88.5
74484;SHT31;62942;52.462;10.846;2023-05-07T01:09:16;8.8;88.5
74484;SHT31;62942;52.462;10.846;2023-05-07T01:10:26;8.8;88.6
74484;SHT31;62942;52.462;10.846;2023-05-07T01:11:36;8.8;88.5
74484;SHT31;62942;52.462;10.846;2023-05-07T01:12:37;8.8;88.5
74484;SHT31;62942;52.462;10.846;2023-05-07T01:13:46;8.8;88.5
74484;SHT31;62942;52.462;10.846;2023-05-07T01:14:46;8.7;88.6
74484;SHT31;62942;52.462;10.846;2023-05-07T01:15:46;8.8;88.5
74484;SHT31;62942;52.462;10.846;2023-05-07T01:16:56;8.8;88.5
74484;SHT31;62942;52.462;10.846;2023-05-07T01:18:06;8.7;88.5
74484;SHT31;62942;52.462;10.846;2023-05-07T01:19:06;8.7;88.5
74484;SHT31;62942;52.462;10.846;2023-05-07T01:20:07;8.7;88.5
74484;SHT31;62942;52.462;10.846;2023-05-07T01:21:06;8.7;88.5
74484;SHT31;62942;52.462;10.846;2023-05-07T01:22:07;8.7;88.5
74484;SHT31;62942;52.462;10.846;2023-05-07T01:23:16;8.7;88.5
74484;SHT31;62942;52.462;10.846;2023-05-07T01:24:16;8.7;88.5
74484;SHT31;62942;52.462;10.846;2023-05-07T01:25:26;8.8;88.5
74484;SHT31;62942;52.462;10.846;2023-05-07T01:26:27;8.7;88.5
74484;SHT31;62942;52.462;10.846;2023-05-07T01:27:26;8.7;88.4
74484;SHT31;62942;52.462;10.846;2023-05-07T01:28:36;8.7;88.2
74484;SHT31;62942;52.462;10.846;2023-05-07T01:29:36;8.7;88.2
74484;SHT31;62942;52.462;10.846;2023-05-07T01:30:49;8.7;88.1
74484;SHT31;62942;52.462;10.846;2023-05-07T01:31:46;8.7;88
74484;SHT31;62942;52.462;10.846;2023-05-07T01:32:48;8.7;87.9
74484;SHT31;62942;52.462;10.846;2023-05-07T01:33:56;8.7;87.9
74484;SHT31;62942;52.462;10.846;2023-05-07T01:34:56;8.7;87.8
74484;SHT31;62942;52.462;10.846;2023-05-07T01:36:07;8.7;87.7
74484;SHT31;62942;52.462;10.846;2023-05-07T01:37:06;8.8;87.7
74484;SHT31;62942;52.462;10.846;2023-05-07T01:38:06;8.8;87.7
74484;SHT31;62942;52.462;10.846;2023-05-07T01:39:16;8.7;87.6
74484;SHT31;62942;52.462;10.846;2023-05-07T01:40:16;8.7;87.6
74484;SHT31;62942;52.462;10.846;2023-05-07T01:41:16;8.8;87.5
74484;SHT31;62942;52.462;10.846;2023-05-07T01:42:26;8.7;87.3
74484;SHT31;62942;52.462;10.846;2023-05-07T01:43:36;8.7;87.2
74484;SHT31;62942;52.462;10.846;2023-05-07T01:44:46;8.7;87.2
74484;SHT31;62942;52.462;10.846;2023-05-07T01:45:46;8.7;87
74484;SHT31;62942;52.462;10.846;2023-05-07T01:46:56;8.7;86.8
74484;SHT31;62942;52.462;10.846;2023-05-07T01:48:07;8.7;86.9
74484;SHT31;62942;52.462;10.846;2023-05-07T01:49:06;8.7;86.8
74484;SHT31;62942;52.462;10.846;2023-05-07T01:50:16;8.7;86.7
74484;SHT31;62942;52.462;10.846;2023-05-07T01:51:16;8.7;86.5
74484;SHT31;62942;52.462;10.846;2023-05-07T01:52:27;8.7;86.5
74484;SHT31;62942;52.462;10.846;2023-05-07T01:53:36;8.7;86.4
74484;SHT31;62942;52.462;10.846;2023-05-07T01:54:46;8.7;86.3
74484;SHT31;62942;52.462;10.846;2023-05-07T01:55:46;8.7;86.3
74484;SHT31;62942;52.462;10.846;2023-05-07T01:56:56;8.7;86.3
74484;SHT31;62942;52.462;10.846;2023-05-07T01:58:06;8.7;86.3
74484;SHT31;62942;52.462;10.846;2023-05-07T01:59:06;8.7;86.3
74484;SHT31;62942;52.462;10.846;2023-05-07T02:00:07;8.7;86.4
74484;SHT31;62942;52.462;10.846;2023-05-07T02:01:06;8.7;86.4
74484;SHT31;62942;52.462;10.846;2023-05-07T02:02:16;8.7;86.3
74484;SHT31;62942;52.462;10.846;2023-05-07T02:03:26;8.7;86.4
74484;SHT31;62942;52.462;10.846;2023-05-07T02:04:36;8.7;86.5
74484;SHT31;62942;52.462;10.846;2023-05-07T02:05:36;8.7;86.4
74484;SHT31;62942;52.462;10.846;2023-05-07T02:06:36;8.7;86.3
74484;SHT31;62942;52.462;10.846;2023-05-07T02:07:36;8.7;86.2
74484;SHT31;62942;52.462;10.846;2023-05-07T02:08:46;8.7;86.2
74484;SHT31;62942;52.462;10.846;2023-05-07T02:09:56;8.7;86.2
74484;SHT31;62942;52.462;10.846;2023-05-07T02:11:06;8.7;86.1
74484;SHT31;62942;52.462;10.846;2023-05-07T02:12:16;8.7;86
74484;SHT31;62942;52.462;10.846;2023-05-07T02:13:29;8.7;86
74484;SHT31;62942;52.462;10.846;2023-05-07T02:14:26;8.7;86
74484;SHT31;62942;52.462;10.846;2023-05-07T02:15:26;8.7;86
74484;SHT31;62942;52.462;10.846;2023-05-07T02:16:26;8.7;86
74484;SHT31;62942;52.462;10.846;2023-05-07T02:18:46;8.7;86.2
74484;SHT31;62942;52.462;10.846;2023-05-07T02:19:56;8.7;86.2
74484;SHT31;62942;52.462;10.846;2023-05-07T02:21:06;8.7;86.3
74484;SHT31;62942;52.462;10.846;2023-05-07T02:22:06;8.6;86.2
74484;SHT31;62942;52.462;10.846;2023-05-07T02:23:16;8.7;86.2
74484;SHT31;62942;52.462;10.846;2023-05-07T02:24:16;8.7;86.2
74484;SHT31;62942;52.462;10.846;2023-05-07T02:25:26;8.7;86.2
74484;SHT31;62942;52.462;10.846;2023-05-07T02:26:26;8.6;86.1
74484;SHT31;62942;52.462;10.846;2023-05-07T02:27:26;8.6;86.1
74484;SHT31;62942;52.462;10.846;2023-05-07T02:28:26;8.6;86
74484;SHT31;62942;52.462;10.846;2023-05-07T02:29:36;8.6;86
74484;SHT31;62942;52.462;10.846;2023-05-07T02:30:46;8.6;85.9
74484;SHT31;62942;52.462;10.846;2023-05-07T02:31:46;8.6;86
74484;SHT31;62942;52.462;10.846;2023-05-07T02:32:56;8.6;86
74484;SHT31;62942;52.462;10.846;2023-05-07T02:33:56;8.6;86
74484;SHT31;62942;52.462;10.846;2023-05-07T02:35:06;8.6;86.1
74484;SHT31;62942;52.462;10.846;2023-05-07T02:36:07;8.6;86.1
74484;SHT31;62942;52.462;10.846;2023-05-07T02:37:16;8.6;86.1
74484;SHT31;62942;52.462;10.846;2023-05-07T02:38:26;8.6;86.2
74484;SHT31;62942;52.462;10.846;2023-05-07T02:39:26;8.5;86.1
74484;SHT31;62942;52.462;10.846;2023-05-07T02:40:36;8.6;86.1
74484;SHT31;62942;52.462;10.846;2023-05-07T02:41:36;8.5;86.2
74484;SHT31;62942;52.462;10.846;2023-05-07T02:42:46;8.6;86.3
74484;SHT31;62942;52.462;10.846;2023-05-07T02:43:56;8.6;86.3
74484;SHT31;62942;52.462;10.846;2023-05-07T02:45:07;8.6;86.3
74484;SHT31;62942;52.462;10.846;2023-05-07T02:46:16;8.6;86.4
74484;SHT31;62942;52.462;10.846;2023-05-07T02:47:16;8.5;86.5
74484;SHT31;62942;52.462;10.846;2023-05-07T02:48:26;8.5;86.4
74484;SHT31;62942;52.462;10.846;2023-05-07T02:49:26;8.5;86.5
74484;SHT31;62942;52.462;10.846;2023-05-07T02:50:26;8.5;86.5
74484;SHT31;62942;52.462;10.846;2023-05-07T02:51:36;8.5;86.6
74484;SHT31;62942;52.462;10.846;2023-05-07T02:52:36;8.5;86.5
74484;SHT31;62942;52.462;10.846;2023-05-07T02:53:46;8.5;86.6
74484;SHT31;62942;52.462;10.846;2023-05-07T02:54:46;8.6;86.6
74484;SHT31;62942;52.462;10.846;2023-05-07T02:55:46;8.5;86.6
74484;SHT31;62942;52.462;10.846;2023-05-07T02:56:56;8.6;86.6
74484;SHT31;62942;52.462;10.846;2023-05-07T02:57:56;8.5;86.6
74484;SHT31;62942;52.462;10.846;2023-05-07T02:59:06;8.5;86.6
74484;SHT31;62942;52.462;10.846;2023-05-07T03:00:10;8.5;86.6
74484;SHT31;62942;52.462;10.846;2023-05-07T03:01:16;8.6;86.6
74484;SHT31;62942;52.462;10.846;2023-05-07T03:02:16;8.5;86.7
74484;SHT31;62942;52.462;10.846;2023-05-07T03:03:16;8.6;86.7
74484;SHT31;62942;52.462;10.846;2023-05-07T03:04:26;8.5;86.7
74484;SHT31;62942;52.462;10.846;2023-05-07T03:05:36;8.5;86.5
74484;SHT31;62942;52.462;10.846;2023-05-07T03:06:36;8.5;86.5
74484;SHT31;62942;52.462;10.846;2023-05-07T03:07:46;8.5;86.5
74484;SHT31;62942;52.462;10.846;2023-05-07T03:08:56;8.6;86.5
74484;SHT31;62942;52.462;10.846;2023-05-07T03:10:06;8.5;86.5
74484;SHT31;62942;52.462;10.846;2023-05-07T03:11:06;8.5;86.4
74484;SHT31;62942;52.462;10.846;2023-05-07T03:12:06;8.5;86.4
74484;SHT31;62942;52.462;10.846;2023-05-07T03:13:16;8.5;86.4
74484;SHT31;62942;52.462;10.846;2023-05-07T03:14:16;8.6;86.4
74484;SHT31;62942;52.462;10.846;2023-05-07T03:15:26;8.5;86.4
74484;SHT31;62942;52.462;10.846;2023-05-07T03:16:37;8.6;86.3
74484;SHT31;62942;52.462;10.846;2023-05-07T03:17:46;8.6;86.3
74484;SHT31;62942;52.462;10.846;2023-05-07T03:18:56;8.5;86.3
74484;SHT31;62942;52.462;10.846;2023-05-07T03:20:07;8.5;86.3
74484;SHT31;62942;52.462;10.846;2023-05-07T03:21:16;8.5;86.3
74484;SHT31;62942;52.462;10.846;2023-05-07T03:22:26;8.6;86.3
74484;SHT31;62942;52.462;10.846;2023-05-07T03:23:36;8.6;86.3
74484;SHT31;62942;52.462;10.846;2023-05-07T03:24:46;8.6;86.3
74484;SHT31;62942;52.462;10.846;2023-05-07T03:25:56;8.6;86.3
74484;SHT31;62942;52.462;10.846;2023-05-07T03:27:06;8.5;86.3
74484;SHT31;62942;52.462;10.846;2023-05-07T03:28:06;8.5;86.4
74484;SHT31;62942;52.462;10.846;2023-05-07T03:29:16;8.6;86.2
74484;SHT31;62942;52.462;10.846;2023-05-07T03:30:26;8.6;86.2
74484;SHT31;62942;52.462;10.846;2023-05-07T03:31:26;8.6;86.1
74484;SHT31;62942;52.462;10.846;2023-05-07T03:32:36;8.6;85.7
74484;SHT31;62942;52.462;10.846;2023-05-07T03:33:50;8.6;85.9
74484;SHT31;62942;52.462;10.846;2023-05-07T03:34:46;8.6;85.8
74484;SHT31;62942;52.462;10.846;2023-05-07T03:35:56;8.6;85.8
74484;SHT31;62942;52.462;10.846;2023-05-07T03:37:06;8.6;85.7
74484;SHT31;62942;52.462;10.846;2023-05-07T03:38:16;8.6;85.6
74484;SHT31;62942;52.462;10.846;2023-05-07T03:39:26;8.6;85.6
74484;SHT31;62942;52.462;10.846;2023-05-07T03:40:36;8.6;85.6
74484;SHT31;62942;52.462;10.846;2023-05-07T03:41:46;8.6;85.6
74484;SHT31;62942;52.462;10.846;2023-05-07T03:42:46;8.7;85.6
74484;SHT31;62942;52.462;10.846;2023-05-07T03:43:56;8.6;85.2
74484;SHT31;62942;52.462;10.846;2023-05-07T03:45:06;8.6;84.8
74484;SHT31;62942;52.462;10.846;2023-05-07T03:46:16;8.7;84.9
74484;SHT31;62942;52.462;10.846;2023-05-07T03:47:26;8.6;84.8
74484;SHT31;62942;52.462;10.846;2023-05-07T03:48:26;8.7;84.7
74484;SHT31;62942;52.462;10.846;2023-05-07T03:49:36;8.7;84.6
74484;SHT31;62942;52.462;10.846;2023-05-07T03:50:46;8.7;84.5
74484;SHT31;62942;52.462;10.846;2023-05-07T03:51:46;8.7;84.4
74484;SHT31;62942;52.462;10.846;2023-05-07T03:52:46;8.7;84.3
74484;SHT31;62942;52.462;10.846;2023-05-07T03:53:56;8.7;84.2
74484;SHT31;62942;52.462;10.846;2023-05-07T03:54:56;8.7;84.2
74484;SHT31;62942;52.462;10.846;2023-05-07T03:55:56;8.7;84.2
74484;SHT31;62942;52.462;10.846;2023-05-07T03:56:56;8.7;84
74484;SHT31;62942;52.462;10.846;2023-05-07T03:58:06;8.7;84
74484;SHT31;62942;52.462;10.846;2023-05-07T03:59:06;8.7;84.1
74484;SHT31;62942;52.462;10.846;2023-05-07T04:00:06;8.7;84
74484;SHT31;62942;52.462;10.846;2023-05-07T04:01:06;8.7;84
74484;SHT31;62942;52.462;10.846;2023-05-07T04:02:16;8.7;84.1
74484;SHT31;62942;52.462;10.846;2023-05-07T04:03:26;8.7;84.1
74484;SHT31;62942;52.462;10.846;2023-05-07T04:04:26;8.7;84.1
74484;SHT31;62942;52.462;10.846;2023-05-07T04:05:26;8.7;84.2
74484;SHT31;62942;52.462;10.846;2023-05-07T04:06:26;8.7;84.3
74484;SHT31;62942;52.462;10.846;2023-05-07T04:07:36;8.7;84.2
74484;SHT31;62942;52.462;10.846;2023-05-07T04:08:46;8.7;84.3
74484;SHT31;62942;52.462;10.846;2023-05-07T04:09:56;8.7;84.4
74484;SHT31;62942;52.462;10.846;2023-05-07T04:10:56;8.7;84.4
74484;SHT31;62942;52.462;10.846;2023-05-07T04:11:56;8.7;84.4
74484;SHT31;62942;52.462;10.846;2023-05-07T04:12:56;8.7;84.4
74484;SHT31;62942;52.462;10.846;2023-05-07T04:14:06;8.7;84.4
74484;SHT31;62942;52.462;10.846;2023-05-07T04:15:16;8.7;84.4
74484;SHT31;62942;52.462;10.846;2023-05-07T04:16:16;8.7;84.4
74484;SHT31;62942;52.462;10.846;2023-05-07T04:17:16;8.7;84.4
74484;SHT31;62942;52.462;10.846;2023-05-07T04:18:16;8.7;84.4
74484;SHT31;62942;52.462;10.846;2023-05-07T04:19:16;8.7;84.4
74484;SHT31;62942;52.462;10.846;2023-05-07T04:20:16;8.7;84.5
74484;SHT31;62942;52.462;10.846;2023-05-07T04:21:26;8.7;84.6
74484;SHT31;62942;52.462;10.846;2023-05-07T04:22:26;8.7;84.5
74484;SHT31;62942;52.462;10.846;2023-05-07T04:23:26;8.7;84.6
74484;SHT31;62942;52.462;10.846;2023-05-07T04:24:26;8.7;84.6
74484;SHT31;62942;52.462;10.846;2023-05-07T04:25:36;8.7;84.6
74484;SHT31;62942;52.462;10.846;2023-05-07T04:26:36;8.7;84.7
74484;SHT31;62942;52.462;10.846;2023-05-07T04:27:46;8.7;84.7
74484;SHT31;62942;52.462;10.846;2023-05-07T04:28:56;8.7;84.8
74484;SHT31;62942;52.462;10.846;2023-05-07T04:30:06;8.7;84.8
74484;SHT31;62942;52.462;10.846;2023-05-07T04:31:06;8.8;85
74484;SHT31;62942;52.462;10.846;2023-05-07T04:32:06;8.8;84.9
74484;SHT31;62942;52.462;10.846;2023-05-07T04:33:16;8.8;85
74484;SHT31;62942;52.462;10.846;2023-05-07T04:34:16;8.8;85
74484;SHT31;62942;52.462;10.846;2023-05-07T04:35:16;8.7;85
74484;SHT31;62942;52.462;10.846;2023-05-07T04:36:26;8.7;85.1
74484;SHT31;62942;52.462;10.846;2023-05-07T04:37:36;8.8;85.1
74484;SHT31;62942;52.462;10.846;2023-05-07T04:38:46;8.8;85
74484;SHT31;62942;52.462;10.846;2023-05-07T04:39:56;8.8;85
74484;SHT31;62942;52.462;10.846;2023-05-07T04:40:56;8.7;84.9
74484;SHT31;62942;52.462;10.846;2023-05-07T04:42:06;8.8;85
74484;SHT31;62942;52.462;10.846;2023-05-07T04:43:16;8.7;85
74484;SHT31;62942;52.462;10.846;2023-05-07T04:44:16;8.8;84.9
74484;SHT31;62942;52.462;10.846;2023-05-07T04:45:26;8.8;84.9
74484;SHT31;62942;52.462;10.846;2023-05-07T04:46:36;8.8;85
74484;SHT31;62942;52.462;10.846;2023-05-07T04:47:46;8.8;85
74484;SHT31;62942;52.462;10.846;2023-05-07T04:48:56;8.7;85.1
74484;SHT31;62942;52.462;10.846;2023-05-07T04:50:06;8.7;85.1
74484;SHT31;62942;52.462;10.846;2023-05-07T04:51:16;8.8;85.2
74484;SHT31;62942;52.462;10.846;2023-05-07T04:52:26;8.8;85.2
74484;SHT31;62942;52.462;10.846;2023-05-07T04:53:36;8.8;85.4
74484;SHT31;62942;52.462;10.846;2023-05-07T04:54:46;8.8;85.3
74484;SHT31;62942;52.462;10.846;2023-05-07T04:55:56;8.8;85.4
74484;SHT31;62942;52.462;10.846;2023-05-07T04:56:56;8.8;85.4
74484;SHT31;62942;52.462;10.846;2023-05-07T04:57:56;8.8;85.4
74484;SHT31;62942;52.462;10.846;2023-05-07T04:59:06;8.8;85.4
74484;SHT31;62942;52.462;10.846;2023-05-07T05:00:16;8.8;85.5
74484;SHT31;62942;52.462;10.846;2023-05-07T05:01:16;8.8;85.4
74484;SHT31;62942;52.462;10.846;2023-05-07T05:02:26;8.8;85.5
74484;SHT31;62942;52.462;10.846;2023-05-07T05:03:26;8.8;85.5
74484;SHT31;62942;52.462;10.846;2023-05-07T05:04:36;8.8;85.6
74484;SHT31;62942;52.462;10.846;2023-05-07T05:05:36;8.8;85.5
74484;SHT31;62942;52.462;10.846;2023-05-07T05:06:36;8.8;85.5
74484;SHT31;62942;52.462;10.846;2023-05-07T05:07:46;8.8;85.2
74484;SHT31;62942;52.462;10.846;2023-05-07T05:08:56;8.8;85.2
74484;SHT31;62942;52.462;10.846;2023-05-07T05:10:06;8.8;85.2
74484;SHT31;62942;52.462;10.846;2023-05-07T05:11:16;8.8;85.2
74484;SHT31;62942;52.462;10.846;2023-05-07T05:12:16;8.8;85.2
74484;SHT31;62942;52.462;10.846;2023-05-07T05:13:16;8.8;85.2
74484;SHT31;62942;52.462;10.846;2023-05-07T05:14:16;8.8;85.1
74484;SHT31;62942;52.462;10.846;2023-05-07T05:15:26;8.9;85.2
74484;SHT31;62942;52.462;10.846;2023-05-07T05:16:36;8.9;85.2
74484;SHT31;62942;52.462;10.846;2023-05-07T05:17:36;8.9;85.2
74484;SHT31;62942;52.462;10.846;2023-05-07T05:18:36;8.9;85.2
74484;SHT31;62942;52.462;10.846;2023-05-07T05:19:36;8.9;85.1
74484;SHT31;62942;52.462;10.846;2023-05-07T05:20:36;8.9;85.1
74484;SHT31;62942;52.462;10.846;2023-05-07T05:21:36;8.9;85.1
74484;SHT31;62942;52.462;10.846;2023-05-07T05:22:36;8.9;85.1
74484;SHT31;62942;52.462;10.846;2023-05-07T05:23:36;8.9;85.1
74484;SHT31;62942;52.462;10.846;2023-05-07T05:24:46;8.9;85.1
74484;SHT31;62942;52.462;10.846;2023-05-07T05:25:46;9;85
74484;SHT31;62942;52.462;10.846;2023-05-07T05:26:56;8.9;85
74484;SHT31;62942;52.462;10.846;2023-05-07T05:28:06;9;85
74484;SHT31;62942;52.462;10.846;2023-05-07T05:29:06;9;84.9
74484;SHT31;62942;52.462;10.846;2023-05-07T05:30:16;9;85
74484;SHT31;62942;52.462;10.846;2023-05-07T05:31:26;9;85
74484;SHT31;62942;52.462;10.846;2023-05-07T05:32:26;9;85
74484;SHT31;62942;52.462;10.846;2023-05-07T05:33:26;9;85
74484;SHT31;62942;52.462;10.846;2023-05-07T05:34:26;9;85
74484;SHT31;62942;52.462;10.846;2023-05-07T05:35:36;9;85
74484;SHT31;62942;52.462;10.846;2023-05-07T05:36:46;9;85
74484;SHT31;62942;52.462;10.846;2023-05-07T05:37:56;9;85
74484;SHT31;62942;52.462;10.846;2023-05-07T05:38:56;9;85
74484;SHT31;62942;52.462;10.846;2023-05-07T05:40:06;9;85.1
74484;SHT31;62942;52.462;10.846;2023-05-07T05:41:16;9;85
74484;SHT31;62942;52.462;10.846;2023-05-07T05:42:26;9;85
74484;SHT31;62942;52.462;10.846;2023-05-07T05:43:26;9;85
74484;SHT31;62942;52.462;10.846;2023-05-07T05:44:36;9;85
74484;SHT31;62942;52.462;10.846;2023-05-07T05:45:46;9;84.8
74484;SHT31;62942;52.462;10.846;2023-05-07T05:46:56;9;84.8
74484;SHT31;62942;52.462;10.846;2023-05-07T05:47:56;9;84.7
74484;SHT31;62942;52.462;10.846;2023-05-07T05:49:06;9;84.7
74484;SHT31;62942;52.462;10.846;2023-05-07T05:50:06;9.1;84.7
74484;SHT31;62942;52.462;10.846;2023-05-07T05:51:16;9.1;84.6
74484;SHT31;62942;52.462;10.846;2023-05-07T05:52:26;9.1;84.6
74484;SHT31;62942;52.462;10.846;2023-05-07T05:53:26;9.1;84.6
74484;SHT31;62942;52.462;10.846;2023-05-07T05:54:36;9.1;84.4
74484;SHT31;62942;52.462;10.846;2023-05-07T05:55:46;9.1;84.2
74484;SHT31;62942;52.462;10.846;2023-05-07T05:56:46;9.1;84.2
74484;SHT31;62942;52.462;10.846;2023-05-07T05:57:56;9.1;84
74484;SHT31;62942;52.462;10.846;2023-05-07T05:59:06;9.1;84
74484;SHT31;62942;52.462;10.846;2023-05-07T06:00:06;9.1;83.9
74484;SHT31;62942;52.462;10.846;2023-05-07T06:01:16;9.1;84
74484;SHT31;62942;52.462;10.846;2023-05-07T06:02:16;9.1;84.1
74484;SHT31;62942;52.462;10.846;2023-05-07T06:03:26;9.2;84
74484;SHT31;62942;52.462;10.846;2023-05-07T06:04:26;9.2;84
74484;SHT31;62942;52.462;10.846;2023-05-07T06:05:26;9.2;83.9
74484;SHT31;62942;52.462;10.846;2023-05-07T06:06:26;9.2;83.9
74484;SHT31;62942;52.462;10.846;2023-05-07T06:07:36;9.2;83.8
74484;SHT31;62942;52.462;10.846;2023-05-07T06:08:36;9.3;83.8
74484;SHT31;62942;52.462;10.846;2023-05-07T06:09:46;9.3;83.6
74484;SHT31;62942;52.462;10.846;2023-05-07T06:10:46;9.3;83.6
74484;SHT31;62942;52.462;10.846;2023-05-07T06:11:46;9.3;83.4
74484;SHT31;62942;52.462;10.846;2023-05-07T06:12:56;9.3;83.5
74484;SHT31;62942;52.462;10.846;2023-05-07T06:14:06;9.3;83.5
74484;SHT31;62942;52.462;10.846;2023-05-07T06:15:06;9.3;83.5
74484;SHT31;62942;52.462;10.846;2023-05-07T06:16:16;9.3;83.5
74484;SHT31;62942;52.462;10.846;2023-05-07T06:17:16;9.4;83.5
74484;SHT31;62942;52.462;10.846;2023-05-07T06:18:26;9.3;83.5
74484;SHT31;62942;52.462;10.846;2023-05-07T06:19:36;9.3;83.4
74484;SHT31;62942;52.462;10.846;2023-05-07T06:20:46;9.3;83.5
74484;SHT31;62942;52.462;10.846;2023-05-07T06:21:56;9.3;83.5
74484;SHT31;62942;52.462;10.846;2023-05-07T06:22:56;9.3;83.6
74484;SHT31;62942;52.462;10.846;2023-05-07T06:23:56;9.3;83.6
74484;SHT31;62942;52.462;10.846;2023-05-07T06:24:56;9.3;83.6
74484;SHT31;62942;52.462;10.846;2023-05-07T06:25:56;9.3;83.6
74484;SHT31;62942;52.462;10.846;2023-05-07T06:27:06;9.3;83.7
74484;SHT31;62942;52.462;10.846;2023-05-07T06:28:16;9.3;83.7
74484;SHT31;62942;52.462;10.846;2023-05-07T06:29:16;9.3;83.7
74484;SHT31;62942;52.462;10.846;2023-05-07T06:30:16;9.3;83.8
74484;SHT31;62942;52.462;10.846;2023-05-07T06:31:17;9.3;83.7
74484;SHT31;62942;52.462;10.846;2023-05-07T06:32:26;9.3;83.7
74484;SHT31;62942;52.462;10.846;2023-05-07T06:33:26;9.4;83.6
74484;SHT31;62942;52.462;10.846;2023-05-07T06:34:26;9.4;83.5
74484;SHT31;62942;52.462;10.846;2023-05-07T06:35:36;9.4;83.5
74484;SHT31;62942;52.462;10.846;2023-05-07T06:36:46;9.4;83.6
74484;SHT31;62942;52.462;10.846;2023-05-07T06:37:56;9.4;83.5
74484;SHT31;62942;52.462;10.846;2023-05-07T06:38:56;9.4;83.5
74484;SHT31;62942;52.462;10.846;2023-05-07T06:39:56;9.4;83.5
74484;SHT31;62942;52.462;10.846;2023-05-07T06:41:06;9.4;83.4
74484;SHT31;62942;52.462;10.846;2023-05-07T06:42:06;9.4;83.3
74484;SHT31;62942;52.462;10.846;2023-05-07T06:43:16;9.4;83.3
74484;SHT31;62942;52.462;10.846;2023-05-07T06:44:16;9.4;83.4
74484;SHT31;62942;52.462;10.846;2023-05-07T06:45:26;9.4;83.3
74484;SHT31;62942;52.462;10.846;2023-05-07T06:46:26;9.4;83.2
74484;SHT31;62942;52.462;10.846;2023-05-07T06:47:36;9.5;83.2
74484;SHT31;62942;52.462;10.846;2023-05-07T06:48:36;9.5;83.3
74484;SHT31;62942;52.462;10.846;2023-05-07T06:49:36;9.5;83.3
74484;SHT31;62942;52.462;10.846;2023-05-07T06:50:36;9.5;83.3
74484;SHT31;62942;52.462;10.846;2023-05-07T06:51:36;9.5;83.2
74484;SHT31;62942;52.462;10.846;2023-05-07T06:52:46;9.5;83.2
74484;SHT31;62942;52.462;10.846;2023-05-07T06:53:56;9.6;83.2
74484;SHT31;62942;52.462;10.846;2023-05-07T06:55:06;9.5;83
74484;SHT31;62942;52.462;10.846;2023-05-07T06:56:06;9.5;83
74484;SHT31;62942;52.462;10.846;2023-05-07T06:57:06;9.5;83
74484;SHT31;62942;52.462;10.846;2023-05-07T06:58:06;9.6;83
74484;SHT31;62942;52.462;10.846;2023-05-07T06:59:16;9.5;82.9
74484;SHT31;62942;52.462;10.846;2023-05-07T07:00:26;9.6;83
74484;SHT31;62942;52.462;10.846;2023-05-07T07:01:26;9.5;83
74484;SHT31;62942;52.462;10.846;2023-05-07T07:02:26;9.5;83.1
74484;SHT31;62942;52.462;10.846;2023-05-07T07:03:26;9.6;83.1
74484;SHT31;62942;52.462;10.846;2023-05-07T07:04:36;9.6;83.1
74484;SHT31;62942;52.462;10.846;2023-05-07T07:05:36;9.6;83.1
74484;SHT31;62942;52.462;10.846;2023-05-07T07:06:36;9.6;83.2
74484;SHT31;62942;52.462;10.846;2023-05-07T07:07:36;9.6;83.2
74484;SHT31;62942;52.462;10.846;2023-05-07T07:08:46;9.6;83.2
74484;SHT31;62942;52.462;10.846;2023-05-07T07:09:46;9.6;83.1
74484;SHT31;62942;52.462;10.846;2023-05-07T07:10:46;9.6;83.2
74484;SHT31;62942;52.462;10.846;2023-05-07T07:11:56;9.7;83.1